createdAt,value
2023-05-14T00:00:29.652Z,1008.51
2023-05-14T00:01:32.870Z,1008.49
2023-05-14T00:02:35.423Z,1008.5
2023-05-14T00:03:35.422Z,1008.49
2023-05-14T00:04:28.808Z,1008.49
2023-05-14T00:05:28.875Z,1008.46
2023-05-14T00:06:28.779Z,1008.47
2023-05-14T00:07:28.771Z,1008.45
2023-05-14T00:08:28.801Z,1008.47
2023-05-14T00:09:28.838Z,1008.45
2023-05-14T00:10:28.781Z,1008.46
2023-05-14T00:11:28.834Z,1008.41
2023-05-14T00:12:28.775Z,1008.43
2023-05-14T00:13:28.852Z,1008.44
2023-05-14T00:14:28.773Z,1008.43
2023-05-14T00:15:28.762Z,1008.44
2023-05-14T00:16:28.813Z,1008.44
2023-05-14T00:17:28.788Z,1008.42
2023-05-14T00:18:28.821Z,1008.38
2023-05-14T00:19:28.840Z,1008.36
2023-05-14T00:20:28.771Z,1008.38
2023-05-14T00:21:29.730Z,1008.35
2023-05-14T00:22:33.054Z,1008.35
2023-05-14T00:23:31.382Z,1008.39
2023-05-14T00:24:36.453Z,1008.43
2023-05-14T00:25:35.604Z,1008.4
2023-05-14T00:26:28.772Z,1008.42
2023-05-14T00:27:28.761Z,1008.4
2023-05-14T00:28:28.889Z,1008.41
2023-05-14T00:29:28.804Z,1008.43
2023-05-14T00:30:28.797Z,1008.43
2023-05-14T00:31:28.811Z,1008.42
2023-05-14T00:32:28.850Z,1008.42
2023-05-14T00:33:28.925Z,1008.44
2023-05-14T00:34:28.782Z,1008.42
2023-05-14T00:35:28.804Z,1008.39
2023-05-14T00:36:28.888Z,1008.4
2023-05-14T00:37:28.912Z,1008.35
2023-05-14T00:38:28.931Z,1008.36
2023-05-14T00:39:28.781Z,1008.36
2023-05-14T00:40:28.766Z,1008.35
2023-05-14T00:41:28.861Z,1008.38
2023-05-14T00:42:28.869Z,1008.35
2023-05-14T00:43:29.777Z,1008.36
2023-05-14T00:44:33.265Z,1008.31
2023-05-14T00:45:36.454Z,1008.32
2023-05-14T00:46:35.739Z,1008.33
2023-05-14T00:47:29.151Z,1008.32
2023-05-14T00:48:28.810Z,1008.29
2023-05-14T00:49:28.887Z,1008.28
2023-05-14T00:50:28.774Z,1008.31
2023-05-14T00:51:28.777Z,1008.28
2023-05-14T00:52:28.902Z,1008.27
2023-05-14T00:53:28.826Z,1008.24
2023-05-14T00:54:28.944Z,1008.25
2023-05-14T00:55:28.843Z,1008.23
2023-05-14T00:56:28.909Z,1008.21
2023-05-14T00:57:28.954Z,1008.21
2023-05-14T00:58:28.939Z,1008.21
2023-05-14T00:59:29.009Z,1008.19
2023-05-14T01:00:29.057Z,1008.21
2023-05-14T01:01:28.925Z,1008.21
2023-05-14T01:02:28.866Z,1008.21
2023-05-14T01:03:28.989Z,1008.22
2023-05-14T01:04:29.917Z,1008.21
2023-05-14T01:05:33.308Z,1008.2
2023-05-14T01:06:36.451Z,1008.22
2023-05-14T01:07:35.821Z,1008.21
2023-05-14T01:08:28.798Z,1008.22
2023-05-14T01:09:29.192Z,1008.19
2023-05-14T01:10:28.858Z,1008.23
2023-05-14T01:11:28.834Z,1008.23
2023-05-14T01:12:28.880Z,1008.22
2023-05-14T01:13:28.773Z,1008.23
2023-05-14T01:14:28.977Z,1008.19
2023-05-14T01:15:29.025Z,1008.16
2023-05-14T01:16:28.923Z,1008.15
2023-05-14T01:17:28.924Z,1008.12
2023-05-14T01:18:29.009Z,1008.1
2023-05-14T01:19:29.094Z,1008.09
2023-05-14T01:20:28.962Z,1008.1
2023-05-14T01:21:28.903Z,1008.13
2023-05-14T01:22:28.879Z,1008.09
2023-05-14T01:23:28.881Z,1008.06
2023-05-14T01:24:28.765Z,1008.05
2023-05-14T01:25:29.899Z,1008.05
2023-05-14T01:26:33.400Z,1008.05
2023-05-14T01:27:36.956Z,1008
2023-05-14T01:28:35.934Z,1008.04
2023-05-14T01:29:28.961Z,1008.04
2023-05-14T01:30:28.990Z,1008.03
2023-05-14T01:31:28.926Z,1008.03
2023-05-14T01:32:29.144Z,1008.05
2023-05-14T01:33:28.960Z,1008.04
2023-05-14T01:34:29.026Z,1007.99
2023-05-14T01:35:28.968Z,1007.95
2023-05-14T01:36:29.104Z,1007.99
2023-05-14T01:37:29.174Z,1007.96
2023-05-14T01:38:28.783Z,1007.98
2023-05-14T01:39:28.759Z,1007.95
2023-05-14T01:40:28.775Z,1007.96
2023-05-14T01:41:29.124Z,1007.94
2023-05-14T01:42:28.779Z,1007.94
2023-05-14T01:43:28.842Z,1007.96
2023-05-14T01:44:28.774Z,1007.95
2023-05-14T01:45:28.778Z,1007.97
2023-05-14T01:46:30.069Z,1007.91
2023-05-14T01:47:33.541Z,1007.9
2023-05-14T01:48:35.076Z,1007.87
2023-05-14T01:50:28.782Z,1007.88
2023-05-14T01:51:28.764Z,1007.9
2023-05-14T01:52:28.763Z,1007.9
2023-05-14T01:53:28.810Z,1007.88
2023-05-14T01:54:28.772Z,1007.88
2023-05-14T01:55:28.783Z,1007.87
2023-05-14T01:56:28.773Z,1007.86
2023-05-14T01:57:28.761Z,1007.86
2023-05-14T01:58:28.785Z,1007.83
2023-05-14T01:59:28.774Z,1007.87
2023-05-14T02:00:28.771Z,1007.89
2023-05-14T02:01:28.809Z,1007.88
2023-05-14T02:02:28.781Z,1007.87
2023-05-14T02:03:28.826Z,1007.88
2023-05-14T02:04:28.757Z,1007.86
2023-05-14T02:05:28.757Z,1007.82
2023-05-14T02:06:28.776Z,1007.87
2023-05-14T02:07:30.040Z,1007.86
2023-05-14T02:08:33.624Z,1007.83
2023-05-14T02:09:35.908Z,1007.86
2023-05-14T02:11:28.780Z,1007.82
2023-05-14T02:12:28.774Z,1007.84
2023-05-14T02:13:28.764Z,1007.81
2023-05-14T02:14:28.777Z,1007.8
2023-05-14T02:15:28.769Z,1007.8
2023-05-14T02:16:28.825Z,1007.83
2023-05-14T02:17:28.825Z,1007.79
2023-05-14T02:18:28.795Z,1007.83
2023-05-14T02:19:28.790Z,1007.81
2023-05-14T02:20:28.779Z,1007.82
2023-05-14T02:21:28.764Z,1007.79
2023-05-14T02:22:28.782Z,1007.8
2023-05-14T02:23:41.798Z,1007.77
2023-05-14T02:25:28.793Z,1007.83
2023-05-14T02:26:28.778Z,1007.86
2023-05-14T02:27:28.793Z,1007.84
2023-05-14T02:28:30.247Z,1007.85
2023-05-14T02:29:33.697Z,1007.87
2023-05-14T02:30:36.032Z,1007.81
2023-05-14T02:32:28.855Z,1007.79
2023-05-14T02:33:28.824Z,1007.8
2023-05-14T02:34:28.776Z,1007.81
2023-05-14T02:35:28.782Z,1007.79
2023-05-14T02:36:28.773Z,1007.81
2023-05-14T02:37:28.769Z,1007.85
2023-05-14T02:38:28.783Z,1007.83
2023-05-14T02:39:28.773Z,1007.85
2023-05-14T02:40:28.780Z,1007.82
2023-05-14T02:41:28.791Z,1007.85
2023-05-14T02:42:28.772Z,1007.8
2023-05-14T02:43:28.762Z,1007.79
2023-05-14T02:44:28.772Z,1007.82
2023-05-14T02:45:28.769Z,1007.78
2023-05-14T02:46:28.777Z,1007.75
2023-05-14T02:47:28.770Z,1007.77
2023-05-14T02:48:28.758Z,1007.77
2023-05-14T02:49:30.238Z,1007.75
2023-05-14T02:50:33.899Z,1007.77
2023-05-14T02:51:36.087Z,1007.77
2023-05-14T02:53:28.825Z,1007.74
2023-05-14T02:54:28.768Z,1007.73
2023-05-14T02:55:28.771Z,1007.77
2023-05-14T02:56:28.774Z,1007.72
2023-05-14T02:57:28.777Z,1007.73
2023-05-14T02:58:31.815Z,1007.75
2023-05-14T03:00:28.764Z,1007.73
2023-05-14T03:01:28.922Z,1007.71
2023-05-14T03:02:28.866Z,1007.72
2023-05-14T03:03:28.808Z,1007.7
2023-05-14T03:04:28.783Z,1007.72
2023-05-14T03:05:28.772Z,1007.7
2023-05-14T03:06:28.778Z,1007.69
2023-05-14T03:07:28.772Z,1007.69
2023-05-14T03:08:28.774Z,1007.69
2023-05-14T03:09:28.782Z,1007.7
2023-05-14T03:10:30.306Z,1007.71
2023-05-14T03:11:33.983Z,1007.71
2023-05-14T03:12:36.163Z,1007.67
2023-05-14T03:14:28.823Z,1007.68
2023-05-14T03:15:28.774Z,1007.74
2023-05-14T03:16:28.791Z,1007.71
2023-05-14T03:17:28.854Z,1007.69
2023-05-14T03:18:28.806Z,1007.71
2023-05-14T03:19:28.791Z,1007.71
2023-05-14T03:20:28.767Z,1007.71
2023-05-14T03:21:28.771Z,1007.68
2023-05-14T03:22:28.776Z,1007.68
2023-05-14T03:23:28.776Z,1007.67
2023-05-14T03:24:28.805Z,1007.68
2023-05-14T03:25:28.770Z,1007.68
2023-05-14T03:26:28.772Z,1007.68
2023-05-14T03:27:28.791Z,1007.67
2023-05-14T03:28:28.792Z,1007.69
2023-05-14T03:29:28.788Z,1007.68
2023-05-14T03:30:28.855Z,1007.67
2023-05-14T03:31:30.475Z,1007.68
2023-05-14T03:32:33.630Z,1007.64
2023-05-14T03:33:36.431Z,1007.71
2023-05-14T03:35:28.790Z,1007.7
2023-05-14T03:36:28.800Z,1007.7
2023-05-14T03:37:28.784Z,1007.65
2023-05-14T03:38:28.889Z,1007.67
2023-05-14T03:39:28.900Z,1007.7
2023-05-14T03:40:28.770Z,1007.65
2023-05-14T03:41:28.782Z,1007.65
2023-05-14T03:42:28.806Z,1007.64
2023-05-14T03:43:28.788Z,1007.66
2023-05-14T03:44:28.768Z,1007.71
2023-05-14T03:45:28.801Z,1007.73
2023-05-14T03:46:28.769Z,1007.69
2023-05-14T03:47:28.775Z,1007.67
2023-05-14T03:48:28.858Z,1007.68
2023-05-14T03:49:28.772Z,1007.68
2023-05-14T03:50:28.771Z,1007.66
2023-05-14T03:51:28.770Z,1007.67
2023-05-14T03:52:28.773Z,1007.66
2023-05-14T03:53:31.304Z,1007.71
2023-05-14T03:54:34.095Z,1007.66
2023-05-14T03:55:35.974Z,1007.65
2023-05-14T03:57:28.776Z,1007.69
2023-05-14T03:58:28.772Z,1007.72
2023-05-14T03:59:28.762Z,1007.69
2023-05-14T04:00:28.780Z,1007.69
2023-05-14T04:01:28.774Z,1007.69
2023-05-14T04:02:28.855Z,1007.69
2023-05-14T04:03:28.928Z,1007.69
2023-05-14T04:04:28.808Z,1007.66
2023-05-14T04:05:28.774Z,1007.62
2023-05-14T04:06:28.767Z,1007.65
2023-05-14T04:07:28.781Z,1007.66
2023-05-14T04:08:28.789Z,1007.63
2023-05-14T04:09:28.775Z,1007.66
2023-05-14T04:10:28.776Z,1007.65
2023-05-14T04:11:28.762Z,1007.67
2023-05-14T04:12:28.758Z,1007.68
2023-05-14T04:13:28.876Z,1007.67
2023-05-14T04:14:31.799Z,1007.68
2023-05-14T04:15:34.228Z,1007.69
2023-05-14T04:16:36.021Z,1007.69
2023-05-14T04:18:28.835Z,1007.69
2023-05-14T04:19:28.790Z,1007.65
2023-05-14T04:20:28.783Z,1007.67
2023-05-14T04:21:28.790Z,1007.68
2023-05-14T04:22:28.777Z,1007.66
2023-05-14T04:23:28.790Z,1007.68
2023-05-14T04:24:28.768Z,1007.64
2023-05-14T04:25:28.775Z,1007.66
2023-05-14T04:26:28.776Z,1007.65
2023-05-14T04:27:28.777Z,1007.61
2023-05-14T04:28:28.770Z,1007.59
2023-05-14T04:29:28.784Z,1007.56
2023-05-14T04:30:28.771Z,1007.56
2023-05-14T04:31:28.776Z,1007.54
2023-05-14T04:32:28.781Z,1007.53
2023-05-14T04:33:28.774Z,1007.49
2023-05-14T04:34:29.347Z,1007.54
2023-05-14T04:35:31.926Z,1007.52
2023-05-14T04:36:34.319Z,1007.55
2023-05-14T04:37:36.146Z,1007.57
2023-05-14T04:39:28.864Z,1007.56
2023-05-14T04:40:28.770Z,1007.52
2023-05-14T04:41:28.808Z,1007.53
2023-05-14T04:42:28.761Z,1007.54
2023-05-14T04:43:28.779Z,1007.54
2023-05-14T04:44:28.762Z,1007.52
2023-05-14T04:45:28.780Z,1007.53
2023-05-14T04:46:28.914Z,1007.57
2023-05-14T04:47:28.790Z,1007.58
2023-05-14T04:48:28.763Z,1007.53
2023-05-14T04:49:28.764Z,1007.57
2023-05-14T04:50:28.785Z,1007.58
2023-05-14T04:51:28.776Z,1007.57
2023-05-14T04:52:28.776Z,1007.58
2023-05-14T04:53:28.761Z,1007.59
2023-05-14T04:54:28.800Z,1007.59
2023-05-14T04:55:28.985Z,1007.56
2023-05-14T04:56:31.914Z,1007.56
2023-05-14T04:57:34.403Z,1007.57
2023-05-14T04:58:36.270Z,1007.57
2023-05-14T05:00:28.875Z,1007.56
2023-05-14T05:01:28.788Z,1007.55
2023-05-14T05:02:28.837Z,1007.54
2023-05-14T05:03:28.884Z,1007.57
2023-05-14T05:04:28.771Z,1007.61
2023-05-14T05:05:28.773Z,1007.59
2023-05-14T05:06:28.837Z,1007.59
2023-05-14T05:07:28.765Z,1007.62
2023-05-14T05:08:28.793Z,1007.59
2023-05-14T05:09:28.772Z,1007.57
2023-05-14T05:10:28.769Z,1007.57
2023-05-14T05:11:28.798Z,1007.55
2023-05-14T05:12:28.764Z,1007.56
2023-05-14T05:13:28.791Z,1007.53
2023-05-14T05:14:28.780Z,1007.57
2023-05-14T05:15:29.774Z,1007.55
2023-05-14T05:16:29.200Z,1007.55
2023-05-14T05:17:32.160Z,1007.58
2023-05-14T05:18:34.692Z,1007.61
2023-05-14T05:19:43.514Z,1007.61
2023-05-14T05:21:28.767Z,1007.55
2023-05-14T05:22:28.766Z,1007.54
2023-05-14T05:23:28.838Z,1007.51
2023-05-14T05:24:28.851Z,1007.54
2023-05-14T05:25:28.777Z,1007.54
2023-05-14T05:26:28.776Z,1007.54
2023-05-14T05:27:28.775Z,1007.54
2023-05-14T05:28:28.911Z,1007.53
2023-05-14T05:29:28.785Z,1007.51
2023-05-14T05:30:28.774Z,1007.48
2023-05-14T05:31:28.784Z,1007.5
2023-05-14T05:32:28.781Z,1007.51
2023-05-14T05:33:28.803Z,1007.51
2023-05-14T05:34:28.770Z,1007.53
2023-05-14T05:35:28.773Z,1007.47
2023-05-14T05:36:28.779Z,1007.47
2023-05-14T05:37:29.172Z,1007.48
2023-05-14T05:38:32.150Z,1007.44
2023-05-14T05:39:34.811Z,1007.42
2023-05-14T05:40:36.462Z,1007.4
2023-05-14T05:42:28.761Z,1007.4
2023-05-14T05:43:28.765Z,1007.41
2023-05-14T05:44:28.782Z,1007.37
2023-05-14T05:45:28.766Z,1007.41
2023-05-14T05:46:28.804Z,1007.39
2023-05-14T05:47:28.772Z,1007.39
2023-05-14T05:48:28.773Z,1007.39
2023-05-14T05:49:28.990Z,1007.39
2023-05-14T05:50:28.769Z,1007.39
2023-05-14T05:51:28.769Z,1007.34
2023-05-14T05:52:28.831Z,1007.34
2023-05-14T05:53:28.764Z,1007.36
2023-05-14T05:54:28.790Z,1007.35
2023-05-14T05:55:28.876Z,1007.35
2023-05-14T05:56:28.767Z,1007.41
2023-05-14T05:57:28.774Z,1007.42
2023-05-14T05:58:28.818Z,1007.4
2023-05-14T05:59:32.285Z,1007.38
2023-05-14T06:00:34.838Z,1007.38
2023-05-14T06:01:36.615Z,1007.44
2023-05-14T06:03:28.789Z,1007.46
2023-05-14T06:04:28.766Z,1007.45
2023-05-14T06:05:28.841Z,1007.46
2023-05-14T06:06:28.767Z,1007.45
2023-05-14T06:07:28.768Z,1007.44
2023-05-14T06:08:28.768Z,1007.44
2023-05-14T06:09:28.772Z,1007.39
2023-05-14T06:10:28.782Z,1007.36
2023-05-14T06:11:28.778Z,1007.32
2023-05-14T06:12:28.778Z,1007.34
2023-05-14T06:13:28.888Z,1007.3
2023-05-14T06:14:28.779Z,1007.28
2023-05-14T06:15:28.791Z,1007.26
2023-05-14T06:16:29.172Z,1007.26
2023-05-14T06:17:28.796Z,1007.24
2023-05-14T06:18:28.782Z,1007.28
2023-05-14T06:19:28.924Z,1007.29
2023-05-14T06:20:32.303Z,1007.31
2023-05-14T06:21:34.826Z,1007.34
2023-05-14T06:22:36.534Z,1007.36
2023-05-14T06:24:28.760Z,1007.37
2023-05-14T06:25:28.771Z,1007.41
2023-05-14T06:26:28.782Z,1007.41
2023-05-14T06:27:28.790Z,1007.4
2023-05-14T06:28:28.779Z,1007.45
2023-05-14T06:29:28.778Z,1007.4
2023-05-14T06:30:28.763Z,1007.36
2023-05-14T06:31:28.811Z,1007.4
2023-05-14T06:32:28.794Z,1007.4
2023-05-14T06:33:28.772Z,1007.4
2023-05-14T06:34:28.776Z,1007.37
2023-05-14T06:35:28.770Z,1007.35
2023-05-14T06:36:28.779Z,1007.37
2023-05-14T06:37:28.869Z,1007.37
2023-05-14T06:38:28.773Z,1007.35
2023-05-14T06:39:28.773Z,1007.37
2023-05-14T06:40:28.997Z,1007.39
2023-05-14T06:41:32.385Z,1007.39
2023-05-14T06:42:34.959Z,1007.36
2023-05-14T06:43:36.611Z,1007.36
2023-05-14T06:45:28.784Z,1007.4
2023-05-14T06:46:28.770Z,1007.44
2023-05-14T06:47:28.793Z,1007.42
2023-05-14T06:48:28.812Z,1007.44
2023-05-14T06:49:28.791Z,1007.45
2023-05-14T06:50:28.763Z,1007.45
2023-05-14T06:51:28.770Z,1007.47
2023-05-14T06:52:28.767Z,1007.5
2023-05-14T06:53:28.772Z,1007.52
2023-05-14T06:54:28.784Z,1007.5
2023-05-14T06:55:28.772Z,1007.53
2023-05-14T06:56:28.766Z,1007.46
2023-05-14T06:57:28.759Z,1007.45
2023-05-14T06:58:28.778Z,1007.47
2023-05-14T06:59:28.776Z,1007.43
2023-05-14T07:00:28.773Z,1007.4
2023-05-14T07:01:28.781Z,1007.48
2023-05-14T07:02:29.316Z,1007.46
2023-05-14T07:03:32.910Z,1007.43
2023-05-14T07:04:35.655Z,1007.46
2023-05-14T07:05:35.072Z,1007.42
2023-05-14T07:06:28.777Z,1007.46
2023-05-14T07:07:28.764Z,1007.4
2023-05-14T07:08:28.758Z,1007.41
2023-05-14T07:09:28.766Z,1007.39
2023-05-14T07:10:28.793Z,1007.38
2023-05-14T07:11:28.770Z,1007.39
2023-05-14T07:12:28.780Z,1007.37
2023-05-14T07:13:31.892Z,1007.37
2023-05-14T07:15:28.787Z,1007.36
2023-05-14T07:16:28.779Z,1007.37
2023-05-14T07:17:28.817Z,1007.38
2023-05-14T07:18:28.811Z,1007.39
2023-05-14T07:19:28.805Z,1007.36
2023-05-14T07:20:28.869Z,1007.31
2023-05-14T07:21:28.766Z,1007.36
2023-05-14T07:22:28.762Z,1007.35
2023-05-14T07:23:29.340Z,1007.35
2023-05-14T07:24:33.016Z,1007.36
2023-05-14T07:25:35.808Z,1007.32
2023-05-14T07:26:35.148Z,1007.29
2023-05-14T07:27:28.783Z,1007.33
2023-05-14T07:28:28.870Z,1007.27
2023-05-14T07:29:28.765Z,1007.31
2023-05-14T07:30:28.815Z,1007.22
2023-05-14T07:31:28.830Z,1007.24
2023-05-14T07:32:28.806Z,1007.23
2023-05-14T07:33:28.775Z,1007.17
2023-05-14T07:34:28.768Z,1007.19
2023-05-14T07:35:28.793Z,1007.15
2023-05-14T07:36:28.776Z,1007.17
2023-05-14T07:37:28.783Z,1007.14
2023-05-14T07:38:28.776Z,1007.12
2023-05-14T07:39:28.782Z,1007.15
2023-05-14T07:40:28.787Z,1007.15
2023-05-14T07:41:28.767Z,1007.13
2023-05-14T07:42:38.146Z,1007.07
2023-05-14T07:44:29.433Z,1007.07
2023-05-14T07:45:33.100Z,1007.09
2023-05-14T07:46:35.981Z,1007.04
2023-05-14T07:47:35.393Z,1007.08
2023-05-14T07:48:28.840Z,1007.04
2023-05-14T07:49:28.954Z,1007.02
2023-05-14T07:50:28.763Z,1007
2023-05-14T07:51:28.770Z,1006.97
2023-05-14T07:52:28.783Z,1006.98
2023-05-14T07:53:28.762Z,1006.93
2023-05-14T07:54:28.767Z,1006.94
2023-05-14T07:55:28.778Z,1006.89
2023-05-14T07:56:28.784Z,1006.89
2023-05-14T07:57:28.779Z,1006.88
2023-05-14T07:58:28.792Z,1006.87
2023-05-14T07:59:28.758Z,1006.88
2023-05-14T08:00:28.756Z,1006.92
2023-05-14T08:01:28.766Z,1006.88
2023-05-14T08:02:28.833Z,1006.9
2023-05-14T08:03:28.811Z,1006.86
2023-05-14T08:04:28.860Z,1006.81
2023-05-14T08:05:29.500Z,1006.83
2023-05-14T08:06:32.998Z,1006.82
2023-05-14T08:07:35.986Z,1006.79
2023-05-14T08:08:35.352Z,1006.79
2023-05-14T08:09:28.860Z,1006.79
2023-05-14T08:10:29.106Z,1006.81
2023-05-14T08:11:28.775Z,1006.78
2023-05-14T08:12:28.785Z,1006.8
2023-05-14T08:13:28.848Z,1006.8
2023-05-14T08:14:28.771Z,1006.82
2023-05-14T08:15:32.074Z,1006.79
2023-05-14T08:17:28.797Z,1006.76
2023-05-14T08:18:28.809Z,1006.77
2023-05-14T08:19:28.785Z,1006.75
2023-05-14T08:20:28.839Z,1006.77
2023-05-14T08:21:28.779Z,1006.78
2023-05-14T08:22:28.776Z,1006.75
2023-05-14T08:23:28.770Z,1006.76
2023-05-14T08:24:28.771Z,1006.75
2023-05-14T08:25:28.767Z,1006.75
2023-05-14T08:26:29.586Z,1006.75
2023-05-14T08:27:33.060Z,1006.75
2023-05-14T08:28:36.062Z,1006.77
2023-05-14T08:29:35.426Z,1006.72
2023-05-14T08:30:28.796Z,1006.79
2023-05-14T08:31:28.831Z,1006.75
2023-05-14T08:32:28.816Z,1006.74
2023-05-14T08:33:28.797Z,1006.76
2023-05-14T08:34:28.837Z,1006.69
2023-05-14T08:35:28.805Z,1006.71
2023-05-14T08:36:28.961Z,1006.69
2023-05-14T08:37:28.843Z,1006.65
2023-05-14T08:38:28.781Z,1006.66
2023-05-14T08:39:28.762Z,1006.67
2023-05-14T08:40:28.820Z,1006.65
2023-05-14T08:41:28.828Z,1006.68
2023-05-14T08:42:28.777Z,1006.67
2023-05-14T08:43:28.794Z,1006.59
2023-05-14T08:44:28.770Z,1006.65
2023-05-14T08:45:28.783Z,1006.62
2023-05-14T08:46:28.780Z,1006.56
2023-05-14T08:47:29.710Z,1006.59
2023-05-14T08:48:33.374Z,1006.55
2023-05-14T08:49:36.154Z,1006.52
2023-05-14T08:50:35.535Z,1006.55
2023-05-14T08:51:28.777Z,1006.57
2023-05-14T08:52:28.763Z,1006.57
2023-05-14T08:53:28.764Z,1006.54
2023-05-14T08:54:29.068Z,1006.48
2023-05-14T08:55:28.771Z,1006.49
2023-05-14T08:56:28.796Z,1006.48
2023-05-14T08:57:28.772Z,1006.45
2023-05-14T08:58:28.821Z,1006.46
2023-05-14T08:59:28.771Z,1006.39
2023-05-14T09:00:28.762Z,1006.44
2023-05-14T09:01:28.921Z,1006.46
2023-05-14T09:02:28.900Z,1006.43
2023-05-14T09:03:28.786Z,1006.38
2023-05-14T09:04:28.769Z,1006.45
2023-05-14T09:05:28.830Z,1006.38
2023-05-14T09:06:28.792Z,1006.38
2023-05-14T09:07:28.780Z,1006.39
2023-05-14T09:08:29.745Z,1006.41
2023-05-14T09:09:33.265Z,1006.39
2023-05-14T09:10:35.985Z,1006.4
2023-05-14T09:11:35.656Z,1006.38
2023-05-14T09:12:28.767Z,1006.35
2023-05-14T09:13:31.762Z,1006.34
2023-05-14T09:15:28.859Z,1006.35
2023-05-14T09:16:28.818Z,1006.35
2023-05-14T09:17:28.835Z,1006.41
2023-05-14T09:18:28.786Z,1006.37
2023-05-14T09:19:28.774Z,1006.33
2023-05-14T09:20:29.026Z,1006.34
2023-05-14T09:21:28.989Z,1006.38
2023-05-14T09:22:28.800Z,1006.28
2023-05-14T09:23:28.937Z,1006.27
2023-05-14T09:24:28.773Z,1006.39
2023-05-14T09:25:28.766Z,1006.36
2023-05-14T09:26:28.862Z,1006.34
2023-05-14T09:27:28.782Z,1006.35
2023-05-14T09:28:28.778Z,1006.33
2023-05-14T09:29:29.830Z,1006.38
2023-05-14T09:30:33.461Z,1006.35
2023-05-14T09:31:36.334Z,1006.34
2023-05-14T09:32:35.815Z,1006.36
2023-05-14T09:33:28.765Z,1006.41
2023-05-14T09:34:28.762Z,1006.35
2023-05-14T09:35:28.774Z,1006.36
2023-05-14T09:36:28.793Z,1006.35
2023-05-14T09:37:28.801Z,1006.33
2023-05-14T09:38:28.770Z,1006.31
2023-05-14T09:39:28.765Z,1006.25
2023-05-14T09:40:29.175Z,1006.36
2023-05-14T09:41:28.767Z,1006.32
2023-05-14T09:42:28.801Z,1006.38
2023-05-14T09:43:28.968Z,1006.37
2023-05-14T09:44:28.763Z,1006.39
2023-05-14T09:45:28.768Z,1006.36
2023-05-14T09:46:28.763Z,1006.37
2023-05-14T09:47:28.931Z,1006.27
2023-05-14T09:48:28.812Z,1006.3
2023-05-14T09:49:28.784Z,1006.31
2023-05-14T09:50:29.911Z,1006.28
2023-05-14T09:51:33.450Z,1006.31
2023-05-14T09:52:34.867Z,1006.32
2023-05-14T09:54:28.772Z,1006.3
2023-05-14T09:55:28.770Z,1006.26
2023-05-14T09:56:28.779Z,1006.28
2023-05-14T09:57:28.774Z,1006.26
2023-05-14T09:58:28.786Z,1006.22
2023-05-14T09:59:28.770Z,1006.2
2023-05-14T10:00:28.760Z,1006.21
2023-05-14T10:01:28.801Z,1006.22
2023-05-14T10:02:28.803Z,1006.22
2023-05-14T10:03:28.794Z,1006.23
2023-05-14T10:04:28.779Z,1006.14
2023-05-14T10:05:28.779Z,1006.14
2023-05-14T10:06:28.767Z,1006.13
2023-05-14T10:07:28.773Z,1006.15
2023-05-14T10:08:28.771Z,1006.12
2023-05-14T10:09:28.767Z,1006.11
2023-05-14T10:10:28.983Z,1006.15
2023-05-14T10:11:28.830Z,1006.13
2023-05-14T10:12:30.120Z,1006.08
2023-05-14T10:13:33.650Z,1006.04
2023-05-14T10:14:35.976Z,1006.04
2023-05-14T10:16:28.793Z,1005.98
2023-05-14T10:17:28.953Z,1006
2023-05-14T10:18:28.788Z,1006.03
2023-05-14T10:19:28.824Z,1006.06
2023-05-14T10:20:28.785Z,1006.05
2023-05-14T10:21:28.776Z,1006.01
2023-05-14T10:22:28.767Z,1006.07
2023-05-14T10:23:28.860Z,1005.99
2023-05-14T10:24:28.774Z,1006.02
2023-05-14T10:25:28.769Z,1006.02
2023-05-14T10:26:28.768Z,1005.99
2023-05-14T10:27:28.763Z,1005.96
2023-05-14T10:28:28.767Z,1005.96
2023-05-14T10:29:28.762Z,1005.97
2023-05-14T10:30:28.766Z,1006.02
2023-05-14T10:31:28.799Z,1005.9
2023-05-14T10:32:28.778Z,1005.92
2023-05-14T10:33:30.560Z,1005.92
2023-05-14T10:34:33.802Z,1005.93
2023-05-14T10:35:36.033Z,1005.83
2023-05-14T10:37:28.779Z,1005.89
2023-05-14T10:38:28.775Z,1005.9
2023-05-14T10:39:28.785Z,1005.86
2023-05-14T10:40:28.794Z,1005.8
2023-05-14T10:41:28.789Z,1005.83
2023-05-14T10:42:28.767Z,1005.85
2023-05-14T10:43:29.083Z,1005.81
2023-05-14T10:44:28.772Z,1005.81
2023-05-14T10:45:28.761Z,1005.75
2023-05-14T10:46:28.801Z,1005.79
2023-05-14T10:47:28.785Z,1005.81
2023-05-14T10:48:28.771Z,1005.88
2023-05-14T10:49:43.191Z,1005.8
2023-05-14T10:51:28.868Z,1005.85
2023-05-14T10:52:28.762Z,1005.79
2023-05-14T10:53:28.768Z,1005.74
2023-05-14T10:54:30.604Z,1005.76
2023-05-14T10:55:33.917Z,1005.72
2023-05-14T10:56:36.094Z,1005.75
2023-05-14T10:58:28.846Z,1005.72
2023-05-14T10:59:28.799Z,1005.7
2023-05-14T11:00:28.766Z,1005.67
2023-05-14T11:01:28.783Z,1005.65
2023-05-14T11:02:28.812Z,1005.64
2023-05-14T11:03:28.793Z,1005.6
2023-05-14T11:04:28.780Z,1005.61
2023-05-14T11:05:28.779Z,1005.61
2023-05-14T11:06:28.770Z,1005.63
2023-05-14T11:07:28.770Z,1005.6
2023-05-14T11:08:31.779Z,1005.64
2023-05-14T11:10:28.759Z,1005.58
2023-05-14T11:11:28.780Z,1005.55
2023-05-14T11:12:28.776Z,1005.65
2023-05-14T11:13:28.775Z,1005.61
2023-05-14T11:14:28.767Z,1005.64
2023-05-14T11:15:30.398Z,1005.64
2023-05-14T11:16:33.992Z,1005.59
2023-05-14T11:17:36.208Z,1005.58
2023-05-14T11:19:28.820Z,1005.55
2023-05-14T11:20:28.770Z,1005.51
2023-05-14T11:21:28.789Z,1005.44
2023-05-14T11:22:28.795Z,1005.44
2023-05-14T11:23:28.870Z,1005.45
2023-05-14T11:24:28.775Z,1005.45
2023-05-14T11:25:28.789Z,1005.51
2023-05-14T11:26:28.849Z,1005.53
2023-05-14T11:27:28.775Z,1005.52
2023-05-14T11:28:28.769Z,1005.5
2023-05-14T11:29:28.780Z,1005.56
2023-05-14T11:30:28.766Z,1005.59
2023-05-14T11:31:28.800Z,1005.54
2023-05-14T11:32:28.809Z,1005.54
2023-05-14T11:33:28.773Z,1005.52
2023-05-14T11:34:28.768Z,1005.49
2023-05-14T11:35:28.773Z,1005.51
2023-05-14T11:36:30.804Z,1005.5
2023-05-14T11:37:34.108Z,1005.48
2023-05-14T11:38:36.266Z,1005.52
2023-05-14T11:40:28.778Z,1005.51
2023-05-14T11:41:28.802Z,1005.51
2023-05-14T11:42:28.766Z,1005.5
2023-05-14T11:43:28.889Z,1005.46
2023-05-14T11:44:28.916Z,1005.47
2023-05-14T11:45:28.768Z,1005.44
2023-05-14T11:46:28.806Z,1005.4
2023-05-14T11:47:28.791Z,1005.37
2023-05-14T11:48:28.781Z,1005.38
2023-05-14T11:49:28.786Z,1005.37
2023-05-14T11:50:28.832Z,1005.4
2023-05-14T11:51:28.778Z,1005.36
2023-05-14T11:52:28.779Z,1005.38
2023-05-14T11:53:28.777Z,1005.39
2023-05-14T11:54:28.862Z,1005.38
2023-05-14T11:55:28.761Z,1005.36
2023-05-14T11:56:28.775Z,1005.37
2023-05-14T11:57:30.882Z,1005.33
2023-05-14T11:58:34.142Z,1005.3
2023-05-14T11:59:36.361Z,1005.32
2023-05-14T12:01:28.763Z,1005.3
2023-05-14T12:02:28.839Z,1005.27
2023-05-14T12:03:28.890Z,1005.28
2023-05-14T12:04:28.787Z,1005.3
2023-05-14T12:05:28.897Z,1005.25
2023-05-14T12:06:28.792Z,1005.25
2023-05-14T12:07:28.772Z,1005.25
2023-05-14T12:08:28.766Z,1005.24
2023-05-14T12:09:28.766Z,1005.25
2023-05-14T12:10:28.781Z,1005.28
2023-05-14T12:11:28.871Z,1005.28
2023-05-14T12:12:28.774Z,1005.28
2023-05-14T12:13:28.790Z,1005.26
2023-05-14T12:14:28.812Z,1005.27
2023-05-14T12:15:28.874Z,1005.23
2023-05-14T12:16:28.880Z,1005.24
2023-05-14T12:17:28.804Z,1005.19
2023-05-14T12:18:31.117Z,1005.17
2023-05-14T12:19:34.030Z,1005.1
2023-05-14T12:20:36.510Z,1005.12
2023-05-14T12:22:28.768Z,1005.06
2023-05-14T12:23:28.769Z,1004.97
2023-05-14T12:24:28.785Z,1005.04
2023-05-14T12:25:28.979Z,1005.02
2023-05-14T12:26:29.322Z,1005
2023-05-14T12:27:28.760Z,1005
2023-05-14T12:28:28.772Z,1004.98
2023-05-14T12:29:28.764Z,1004.94
2023-05-14T12:30:28.831Z,1005.01
2023-05-14T12:31:28.787Z,1005.02
2023-05-14T12:32:28.767Z,1005.01
2023-05-14T12:33:28.761Z,1005.01
2023-05-14T12:34:28.794Z,1004.94
2023-05-14T12:35:28.812Z,1004.98
2023-05-14T12:36:28.938Z,1004.99
2023-05-14T12:37:31.901Z,1004.97
2023-05-14T12:38:28.766Z,1004.93
2023-05-14T12:39:30.763Z,1004.93